• Join FlightAware (Why Join?)
  • Login
  • US Flag 
07:58PM EDT


 

Airport Tracker/Info


-or-


 

Live Flight TrackerFlight Track Log ✈ GJS3618 ✈ 17-Apr-2013 ✈ KORD - KALB

Flight Track Log - Related Links

Times and Time Zones

All times are in EDT time to prevent confusion due to time zone crossing. See the GJS3618 flight status page for this flight to view local times or setup timezone preferences in your user account.

Time Position Orientation Groundspeed Altitude Reporting Facility
EDT Latitude Longitude Course Direction KTS MPH feet Rate Location/Type
09:03AM 42.0000 -87.8667 66° East 156 180 2,900  Level Chicago TRACON
09:05AM 42.0369 -87.6986 73° East 256 295 7,800 2,400 Climbing Chicago Center
09:06AM 42.0750 -87.6014 62° Northeast 289 333 10,400 2,520 Climbing Chicago Center
09:07AM 42.1164 -87.4914 63° Northeast 323 372 13,000 1,800 Climbing Chicago Center
09:08AM 42.2159 -87.2022 66° East  Level FlightAware Approximate
09:08AM 42.1575 -87.3611 67° East 375 432 14,200  Level Chicago Center
09:09AM 42.1675 -87.1767 86° East 406 467 17,300 2,280 Climbing Chicago Center
09:10AM 42.1758 -87.0203 86° East 415 478 19,000 1,860 Climbing Chicago Center
09:11AM 42.1842 -86.8592 86° East 428 493 21,200 1,800 Climbing Chicago Center
09:12AM 42.1928 -86.6964 86° East 435 501 22,700 1,560 Climbing Chicago Center
09:13AM 42.2019 -86.5142 86° East 452 520 24,500 1,320 Climbing Chicago Center
09:14AM 42.2103 -86.3383 86° East 468 539 25,500 960 Climbing Chicago Center
09:15AM 42.2189 -86.1542 86° East 488 562 26,500 1,020 Climbing Chicago Center
09:16AM 42.2289 -85.9642 86° East 502 578 27,700 1,140 Climbing Chicago Center
09:17AM 42.2364 -85.7736 87° East 507 583 28,900 1,380 Climbing Chicago Center
09:18AM 42.2458 -85.5828 86° East 509 586 30,600 1,560 Climbing Chicago Center
09:19AM 42.2539 -85.3950 87° East 501 577 32,200 1,560 Climbing Chicago Center
09:20AM 42.2614 -85.1961 87° East 485 558 33,600 1,320 Climbing Cleveland Center
09:21AM 42.2708 -85.0089 86° East 485 558 34,700 1,020 Climbing Cleveland Center
09:22AM 42.2778 -84.8239 87° East 495 570 35,700 840 Climbing Cleveland Center
09:23AM 42.2831 -84.6756 87° East 495 570 36,400 600 Climbing Cleveland Center
09:24AM 42.2883 -84.4653 88° East 500 575 37,000 300 Climbing Cleveland Center
09:25AM 42.3111 -84.2786 81° East 500 575 37,000  Level Cleveland Center
09:26AM 42.3378 -84.0919 79° East 500 575 37,000  Level Cleveland Center
09:27AM 42.3642 -83.9050 79° East 505 581 37,000  Level Cleveland Center
09:28AM 42.3925 -83.7181 78° East 505 581 37,000  Level Cleveland Center
09:29AM 42.4058 -83.5303 84° East 505 581 37,000  Level Cleveland Center
09:30AM 42.4172 -83.3197 86° East 500 575 37,000  Level Cleveland Center
09:31AM 42.4239 -83.1231 87° East 505 581 37,000  Level Cleveland Center
09:32AM 42.4300 -82.9350 87° East 505 581 37,000  Level Cleveland Center
09:33AM 42.4356 -82.7467 88° East 505 581 37,000  Level Cleveland Center
09:34AM 42.4411 -82.5528 88° East 511 588 37,000  Level Cleveland Center
09:35AM 42.4486 -82.3589 87° East 511 588 37,000  Level Cleveland Center
09:36AM 42.4514 -82.1647 89° East 511 588 37,000  Level Cleveland Center
09:37AM 42.4575 -82.0100 87° East 516 594 37,000  Level Cleveland Center
09:38AM 42.4603 -81.7792 89° East 511 588 37,000  Level Cleveland Center
09:39AM 42.4661 -81.6050 87° East 511 588 37,000  Level Cleveland Center
09:40AM 42.4697 -81.4164 88° East 517 595 37,000  Level Cleveland Center
09:41AM 42.4731 -81.2250 89° East 509 586 37,000  Level Cleveland Center
09:42AM 42.4761 -81.0281 89° East 509 586 37,000  Level Cleveland Center
09:43AM 42.4808 -80.8169 88° East 515 593 37,000  Level Cleveland Center
09:44AM 42.4831 -80.6225 89° East 510 587 37,000  Level Cleveland Center
09:45AM 42.4831 -80.4283 90° East 513 590 37,000  Level Cleveland Center
09:46AM 42.4867 -80.2369 88° East 513 590 37,000  Level Cleveland Center
09:47AM 42.4881 -80.0397 89° East 519 597 37,000  Level Cleveland Center
09:48AM 42.4914 -79.8681 88° East 514 592 37,000  Level Cleveland Center
09:49AM 42.4942 -79.6708 89° East 514 592 37,000  Level Cleveland Center
09:50AM 42.4925 -79.4739 91° East 514 592 37,000  Level Cleveland Center
09:51AM 42.4925 -79.2767 90° East 514 592 37,000  Level Cleveland Center
09:52AM 42.5067 -79.0847 84° East 519 597 37,000  Level Cleveland Center
09:53AM 42.5186 -78.8844 85° East 519 597 37,000 -600 Level Cleveland Center
09:54AM 42.5322 -78.6925 84° East 519 597 35,800 -1,320 Descending Cleveland Center
09:55AM 42.5456 -78.5006 85° East 519 597 34,400 -1,440 Descending Cleveland Center
09:56AM 42.5564 -78.3028 86° East 519 597 33,000 -1,440 Descending Cleveland Center
09:57AM 42.5692 -78.1022 85° East 524 603 31,600 -1,440 Descending Cleveland Center
09:58AM 42.5792 -77.9044 86° East 524 603 30,200 -1,260 Descending Cleveland Center
09:59AM 42.5928 -77.6867 85° East 524 603 29,100 -600 Descending Cleveland Center
10:00AM 42.6064 -77.4942 84° East 524 603 29,000 -60 Descending Cleveland Center
10:01AM 42.6136 -77.3019 87° East 517 595 29,000  Level Cleveland Center
10:03AM 42.6303 -76.9928 86° East 510 587 29,000  Level Boston Center
10:04AM 42.6400 -76.7986 86° East 515 593 29,000  Level Boston Center
10:05AM 42.6478 -76.6439 86° East 515 593 29,000  Level Boston Center
10:06AM 42.6581 -76.4128 86° East 515 593 29,000  Level Boston Center
10:07AM 42.6689 -76.2244 85° East 515 593 29,000  Level Boston Center
10:08AM 42.6772 -76.0300 87° East 515 593 29,000 -960 Level Boston Center
10:09AM 42.6853 -75.8383 87° East 515 593 27,200 -2,100 Descending Boston Center
10:10AM 42.6925 -75.6550 87° East 509 586 24,900 -2,340 Descending Boston Center
10:11AM 42.6975 -75.4800 88° East 479 551 22,600 -2,220 Descending Boston Center
10:12AM 42.7039 -75.3108 87° East 461 531 20,500 -2,040 Descending Boston Center
10:13AM 42.7097 -75.1614 87° East 448 516 18,500 -1,800 Descending Boston Center
10:14AM 42.7133 -74.9975 88° East 436 502 16,900 -1,980 Descending Boston Center
10:14AM 42.6953 -74.8725 101° East 432 497 15,200 -2,100 Descending Boston Center
10:15AM 42.6897 -74.8383 102° East 431 496 14,900 -1,740 Descending Boston Center
10:15AM 42.6672 -74.7189 104° East 417 480 13,400 -1,800 Descending Boston Center
10:16AM 42.6578 -74.6706 105° East 425 489 13,100 -1,680 Descending Boston Center
10:16AM 42.6389 -74.5711 104° East 400 460 11,700 -1,380 Descending Boston Center
10:17AM 42.6331 -74.5397 104° East 401 461 11,700 -1,140 Level Boston Center
10:17AM 42.6311 -74.4211 91° East 351 404 10,600 -1,440 Descending Boston Center
10:18AM 42.6317 -74.3900 89° East 373 429 10,300 -1,500 Descending Boston Center
10:19AM 42.6353 -74.2972 87° East 320 368 9,100 -1,500 Descending Boston Center
10:19AM 42.6378 -74.2831 77° East 334 384 8,800 -1,800 Descending Boston Center
10:20AM 42.6414 -74.1817 87° East 311 358 7,300 -1,920 Descending Boston Center
10:20AM 42.6417 -74.1533 89° East 311 358 6,900 -1,560 Descending Boston Center
10:21AM 42.6472 -74.0603 85° East 292 336 5,600 -1,500 Descending Boston Center
10:22AM 42.6422 -73.9642 94° East 241 277 4,100 -1,380 Descending Boston Center
10:23AM 42.6350 -73.8964 98° East 246 283 2,800 -900 Descending Boston Center
10:24AM 42.6342 -73.7947 91° East 216 249 2,200 -720 Descending Boston Center
10:25AM 42.6778 -73.8042 351° North 118 136 1,500 -720 Descending Boston Center
10:26AM 42.7069 -73.8047 359° North 115 132 900 -660 Descending Boston Center